Terminal Aerodrome Forecast
Issued by NWS

Home | Current Version | Previous Version | Graphics & Text | Print | Product List | Glossary Off
Versions: 1 2 3 4 5 6 7 8 9 10 11 12 13 14

000
FTUS43 KFGF 242321
TAFBJI
TAF
KBJI 242321Z 2500/2524 26010KT P6SM SCT060
      TEMPO 2500/2502 BKN060
     FM250300 25006KT P6SM SCT250
     FM251300 27010KT P6SM BKN015
     FM251700 29014G22KT P6SM BKN025
     FM252000 29013KT P6SM BKN035=

USA.gov is the U.S. government's official web portal to all federal, state and local government web resources and services.